Time;durP1;ratioP1;P1;durP2;ratioP2;P2;SDS_P1;SDS_P2;PMS_P1;PMS_P2;Temp;Humidity;BMP_temperature;BMP_pressure;BME280_temperature;BME280_humidity;BME280_pressure;Samples;Min_cycle;Max_cycle;Signal;HPM_P1;HPM_P2
2023/02/18 00:01:22;;;;;;;5.22;2.00;;;27.80;62.40;;;;;;4094434;28;20460;-51
2023/02/18 00:03:44;;;;;;;4.22;2.00;;;27.80;62.30;;;;;;4085599;28;20517;-53
2023/02/18 00:06:22;;;;;;;3.55;2.33;;;27.90;62.20;;;;;;4096209;28;20118;-58
2023/02/18 00:08:45;;;;;;;3.63;2.05;;;27.90;61.90;;;;;;4095522;28;20049;-50
2023/02/18 00:11:08;;;;;;;4.25;1.85;;;27.90;61.80;;;;;;4085752;28;20508;-50
2023/02/18 00:13:30;;;;;;;4.00;2.17;;;28.00;61.60;;;;;;4099021;28;20043;-52
2023/02/18 00:15:53;;;;;;;3.20;2.13;;;28.10;61.40;;;;;;4087547;28;20043;-56
2023/02/18 00:18:15;;;;;;;5.15;2.53;;;28.10;61.60;;;;;;4095872;28;20045;-57
2023/02/18 00:20:39;;;;;;;4.32;2.10;;;28.20;61.60;;;;;;4099069;28;20058;-54
2023/02/18 00:23:01;;;;;;;;;;;28.30;61.50;;;;;;4099207;28;20563;-53
2023/02/18 00:25:24;;;;;;;3.45;2.17;;;28.40;61.40;;;;;;4096111;28;19914;-52
2023/02/18 00:27:46;;;;;;;3.97;2.15;;;28.40;61.20;;;;;;4096428;28;20465;-55
2023/02/18 00:30:09;;;;;;;5.63;2.40;;;28.50;61.10;;;;;;4095826;28;20421;-50
2023/02/18 00:32:33;;;;;;;3.03;2.10;;;28.50;61.00;;;;;;4098327;28;20125;-58
2023/02/18 00:34:56;;;;;;;4.88;2.00;;;28.60;60.80;;;;;;4094226;28;20039;-57
2023/02/18 00:37:18;;;;;;;3.70;2.13;;;28.60;60.60;;;;;;4097349;28;20401;-55
2023/02/18 00:39:40;;;;;;;3.05;2.38;;;28.70;60.10;;;;;;4093785;28;20583;-55
2023/02/18 00:42:03;;;;;;;4.40;2.45;;;28.70;59.60;;;;;;4095436;28;20702;-51
2023/02/18 00:44:25;;;;;;;5.15;2.70;;;28.80;59.50;;;;;;4094732;28;20514;-52
2023/02/18 00:46:48;;;;;;;4.85;2.38;;;28.80;59.40;;;;;;4100636;28;20262;-56
2023/02/18 00:49:11;;;;;;;4.43;2.63;;;28.90;59.30;;;;;;4100455;28;20050;-54
2023/02/18 00:51:33;;;;;;;5.22;2.25;;;28.90;59.10;;;;;;4101687;28;20289;-52
2023/02/18 00:53:56;;;;;;;3.70;1.90;;;29.00;59.10;;;;;;4103665;28;20599;-55
2023/02/18 00:56:18;;;;;;;5.30;2.53;;;29.10;59.00;;;;;;4099805;28;20062;-52
2023/02/18 00:58:41;;;;;;;4.77;2.30;;;29.20;58.40;;;;;;4100698;28;20062;-54
2023/02/18 01:01:05;;;;;;;3.13;2.25;;;29.30;58.20;;;;;;4099118;28;20046;-58
2023/02/18 01:03:27;;;;;;;4.20;2.22;;;29.30;58.40;;;;;;4102050;28;20135;-54
2023/02/18 01:05:50;;;;;;;4.57;2.10;;;29.40;58.40;;;;;;4096255;28;20090;-56
2023/02/18 01:08:13;;;;;;;5.10;2.42;;;29.50;58.20;;;;;;4101270;28;20452;-52
2023/02/18 01:10:39;;;;;;;2.78;2.08;;;29.50;58.00;;;;;;4100848;28;20034;-50
2023/02/18 01:13:05;;;;;;;5.28;2.20;;;29.60;58.00;;;;;;4101383;28;20038;-59
2023/02/18 01:15:27;;;;;;;3.65;2.35;;;29.70;57.50;;;;;;4095740;28;20045;-54
2023/02/18 01:17:50;;;;;;;4.15;2.10;;;29.80;57.50;;;;;;4095036;28;20039;-58
2023/02/18 01:20:14;;;;;;;3.42;2.70;;;29.80;57.50;;;;;;4086225;28;20082;-55
2023/02/18 01:22:37;;;;;;;3.80;2.30;;;29.90;57.50;;;;;;4097669;28;20054;-53
2023/02/18 01:24:59;;;;;;;4.43;2.47;;;30.00;58.00;;;;;;4096390;28;20532;-48
2023/02/18 01:27:22;;;;;;;5.68;2.42;;;30.00;58.50;;;;;;4101130;28;20031;-58
2023/02/18 01:29:44;;;;;;;9.85;2.30;;;30.10;58.80;;;;;;4102832;28;20591;-46
2023/02/18 01:32:07;;;;;;;6.43;2.40;;;30.10;59.20;;;;;;4101204;28;20050;-50
2023/02/18 01:34:29;;;;;;;4.22;1.95;;;30.10;59.50;;;;;;4099786;28;20407;-48
2023/02/18 01:36:51;;;;;;;4.88;2.50;;;30.10;59.50;;;;;;4087179;28;20071;-45
2023/02/18 01:39:14;;;;;;;5.63;2.10;;;30.10;59.60;;;;;;4101260;28;20039;-51
2023/02/18 01:41:36;;;;;;;6.57;2.83;;;30.20;59.80;;;;;;4099997;28;20038;-53
2023/02/18 01:44:20;;;;;;;3.72;2.10;;;30.20;59.60;;;;;;4096585;28;20059;-53
2023/02/18 01:46:42;;;;;;;4.40;2.05;;;30.30;59.50;;;;;;4095586;28;20047;-46
2023/02/18 01:49:06;;;;;;;11.13;2.20;;;30.20;59.60;;;;;;4097630;28;20456;-53
2023/02/18 01:51:53;;;;;;;5.93;2.50;;;30.20;61.50;;;;;;4097477;28;20347;-60
2023/02/18 01:54:19;;;;;;;3.13;2.00;;;30.10;59.40;;;;;;4100876;28;20167;-47
2023/02/18 01:56:52;;;;;;;3.05;1.83;;;29.90;57.40;;;;;;4095752;28;20047;-47
2023/02/18 01:59:21;;;;;;;2.25;1.67;;;29.70;56.00;;;;;;4101926;28;20077;-47
2023/02/18 02:01:45;;;;;;;2.45;1.70;;;29.60;55.50;;;;;;4106165;28;20042;-48
2023/02/18 02:04:07;;;;;;;2.35;1.60;;;29.40;55.30;;;;;;4098168;28;20550;-47
2023/02/18 02:06:31;;;;;;;2.15;1.70;;;29.30;54.80;;;;;;4098040;28;20035;-47
2023/02/18 02:08:58;;;;;;;2.20;1.50;;;29.10;54.40;;;;;;4087759;28;20106;-46
2023/02/18 02:11:46;;;;;;;2.60;1.90;;;29.00;54.60;;;;;;4101206;28;20487;-44
2023/02/18 02:14:27;;;;;;;2.22;1.83;;;28.80;54.60;;;;;;4091656;28;20047;-47
2023/02/18 02:17:40;;;;;;;3.15;1.92;;;28.70;54.60;;;;;;4089998;28;20097;-45
2023/02/18 02:20:21;;;;;;;2.70;1.98;;;28.50;55.20;;;;;;4099305;28;20042;-44
2023/02/18 02:23:01;;;;;;;2.53;1.80;;;28.40;55.10;;;;;;4099464;28;20340;-45
2023/02/18 02:25:29;;;;;;;2.28;1.70;;;28.20;54.90;;;;;;4101802;28;20039;-45
2023/02/18 02:28:10;;;;;;;2.33;1.75;;;28.20;55.00;;;;;;4103311;28;20066;-45
2023/02/18 02:30:45;;;;;;;1.90;1.67;;;28.00;54.80;;;;;;4087707;28;20529;-45
2023/02/18 02:33:32;;;;;;;3.13;1.75;;;27.90;55.20;;;;;;4083711;28;20361;-45
2023/02/18 02:36:21;;;;;;;2.60;1.75;;;27.80;55.30;;;;;;4101702;28;20145;-44
2023/02/18 02:39:21;;;;;;;2.13;1.70;;;27.70;55.90;;;;;;4097307;28;20042;-44
2023/02/18 02:42:03;;;;;;;2.03;1.65;;;27.60;55.70;;;;;;4087644;28;20053;-44
2023/02/18 02:44:42;;;;;;;2.25;1.58;;;27.50;55.80;;;;;;4085169;28;20874;-47
2023/02/18 02:47:25;;;;;;;2.95;1.70;;;27.40;55.70;;;;;;4089882;28;20138;-45
2023/02/18 02:50:05;;;;;;;2.13;1.70;;;27.30;55.50;;;;;;4090788;28;20035;-47
2023/02/18 02:52:32;;;;;;;2.67;1.92;;;27.20;56.10;;;;;;4087866;28;20046;-51
2023/02/18 02:54:54;;;;;;;2.28;1.80;;;27.10;56.50;;;;;;4091603;28;20038;-49
2023/02/18 02:57:16;;;;;;;2.83;2.10;;;27.00;56.60;;;;;;4094328;28;20054;-43
2023/02/18 02:59:42;;;;;;;2.40;1.80;;;27.00;56.40;;;;;;4089245;28;20080;-48
2023/02/18 03:02:41;;;;;;;2.30;1.70;;;26.90;56.30;;;;;;4090697;28;20388;-45
2023/02/18 03:05:16;;;;;;;2.42;1.80;;;26.80;56.70;;;;;;4095274;28;20054;-44
2023/02/18 03:07:39;;;;;;;2.50;1.90;;;26.70;56.30;;;;;;4089240;28;20146;-44
2023/02/18 03:10:17;;;;;;;2.38;1.80;;;26.60;56.90;;;;;;4090991;28;20488;-46
2023/02/18 03:13:10;;;;;;;2.83;1.77;;;26.60;57.10;;;;;;4090447;28;20049;-46
2023/02/18 03:15:48;;;;;;;3.05;1.90;;;26.50;57.20;;;;;;4093731;28;20039;-45
2023/02/18 03:18:17;;;;;;;2.05;1.83;;;26.50;57.10;;;;;;4094156;28;20074;-44
2023/02/18 03:20:50;;;;;;;2.92;2.03;;;26.40;57.20;;;;;;4104121;28;20027;-43
2023/02/18 03:23:19;;;;;;;2.67;2.00;;;26.40;57.20;;;;;;4104016;28;20152;-44
2023/02/18 03:25:43;;;;;;;3.53;2.10;;;26.30;57.30;;;;;;4105198;28;20049;-44
2023/02/18 03:28:19;;;;;;;3.25;2.15;;;26.20;57.20;;;;;;4101831;28;20551;-49
2023/02/18 03:30:55;;;;;;;2.00;1.65;;;26.20;57.20;;;;;;4090535;28;20109;-45
2023/02/18 03:33:25;;;;;;;3.00;2.00;;;26.10;57.40;;;;;;4092758;28;20553;-52
2023/02/18 03:35:49;;;;;;;2.05;1.65;;;26.00;57.40;;;;;;4095513;28;20042;-48
2023/02/18 03:38:23;;;;;;;2.50;1.90;;;26.00;57.60;;;;;;4093369;28;20047;-47
2023/02/18 03:40:46;;;;;;;2.50;1.67;;;25.90;57.50;;;;;;4092015;28;20058;-44
2023/02/18 03:43:08;;;;;;;2.50;1.77;;;25.90;57.90;;;;;;4095249;28;20054;-47
2023/02/18 03:45:31;;;;;;;2.55;1.80;;;25.80;57.60;;;;;;4088596;28;20043;-47
2023/02/18 03:47:54;;;;;;;2.30;1.77;;;25.70;57.60;;;;;;4096034;28;20043;-47
2023/02/18 03:50:16;;;;;;;2.77;2.10;;;25.70;57.90;;;;;;4093195;28;20042;-47
2023/02/18 03:52:39;;;;;;;2.67;1.83;;;25.70;57.80;;;;;;4093688;28;20039;-50
2023/02/18 03:55:04;;;;;;;3.38;1.88;;;25.60;57.90;;;;;;4088492;28;20634;-48
2023/02/18 03:57:27;;;;;;;2.42;1.95;;;25.60;57.90;;;;;;4090903;28;20453;-49
2023/02/18 03:59:49;;;;;;;2.70;1.90;;;25.50;57.90;;;;;;4099048;28;20042;-50
2023/02/18 04:02:12;;;;;;;2.25;2.00;;;25.50;58.00;;;;;;4095662;28;20409;-42
2023/02/18 04:04:34;;;;;;;2.70;2.05;;;25.40;58.00;;;;;;4094153;28;20089;-45
2023/02/18 04:06:57;;;;;;;2.28;1.63;;;25.40;58.00;;;;;;4090621;28;20381;-44
2023/02/18 04:09:19;;;;;;;2.78;2.00;;;25.30;57.90;;;;;;4093183;28;20958;-49
2023/02/18 04:11:42;;;;;;;3.63;2.28;;;25.30;58.10;;;;;;4089648;28;20144;-48
2023/02/18 04:14:04;;;;;;;2.20;1.80;;;25.20;57.90;;;;;;4094075;28;20333;-47
2023/02/18 04:16:27;;;;;;;2.88;2.20;;;25.20;57.90;;;;;;4097520;28;20046;-46
2023/02/18 04:18:49;;;;;;;2.50;2.08;;;25.20;57.90;;;;;;4094866;28;20038;-47
2023/02/18 04:21:12;;;;;;;3.80;2.22;;;25.20;58.70;;;;;;4097437;28;20555;-50
2023/02/18 04:23:35;;;;;;;2.60;2.10;;;25.10;57.80;;;;;;4081249;28;20051;-44
2023/02/18 04:25:57;;;;;;;2.45;1.80;;;25.10;58.10;;;;;;4094530;28;20039;-48
2023/02/18 04:28:20;;;;;;;2.72;2.20;;;25.10;57.80;;;;;;4095848;28;20042;-46
2023/02/18 04:30:43;;;;;;;2.13;1.92;;;25.10;58.00;;;;;;4101167;28;20039;-49
2023/02/18 04:33:06;;;;;;;2.30;1.80;;;25.00;57.80;;;;;;4097032;28;20047;-48
2023/02/18 04:35:28;;;;;;;1.92;1.73;;;25.00;57.90;;;;;;4102697;28;20031;-48
2023/02/18 04:37:51;;;;;;;3.65;2.03;;;25.00;58.00;;;;;;4103118;28;20611;-47
2023/02/18 04:40:14;;;;;;;2.60;1.88;;;24.90;58.20;;;;;;4100484;28;20165;-48
2023/02/18 04:42:36;;;;;;;2.70;2.20;;;24.90;58.30;;;;;;4097764;28;20046;-45
2023/02/18 04:44:59;;;;;;;2.63;2.10;;;24.90;58.50;;;;;;4096522;28;20046;-47
2023/02/18 04:47:22;;;;;;;3.88;2.40;;;24.80;59.10;;;;;;4085991;28;20039;-48
2023/02/18 04:49:44;;;;;;;3.30;2.17;;;24.80;58.60;;;;;;4098845;28;20074;-45
2023/02/18 04:52:07;;;;;;;2.33;1.90;;;24.70;58.60;;;;;;4096572;28;20039;-48
2023/02/18 04:54:29;;;;;;;2.42;1.80;;;24.70;58.60;;;;;;4100124;28;20043;-46
2023/02/18 04:56:52;;;;;;;2.30;2.00;;;24.70;58.70;;;;;;4100518;28;20584;-45
2023/02/18 04:59:15;;;;;;;2.35;1.95;;;24.60;58.70;;;;;;4104656;28;20522;-47
2023/02/18 05:01:37;;;;;;;3.47;2.00;;;24.60;58.70;;;;;;4099242;28;20105;-48
2023/02/18 05:04:00;;;;;;;2.50;2.10;;;24.60;58.60;;;;;;4095109;28;20138;-48
2023/02/18 05:06:22;;;;;;;2.80;2.10;;;24.50;58.60;;;;;;4101114;28;20034;-45
2023/02/18 05:08:45;;;;;;;2.30;1.80;;;24.50;58.70;;;;;;4094750;28;20533;-46
2023/02/18 05:11:08;;;;;;;3.10;2.10;;;24.40;58.70;;;;;;4099359;28;20179;-47
2023/02/18 05:13:30;;;;;;;2.72;2.08;;;24.40;58.70;;;;;;4099171;28;20046;-46
2023/02/18 05:15:53;;;;;;;2.47;1.83;;;24.40;58.90;;;;;;4103339;28;20054;-44
2023/02/18 05:18:15;;;;;;;2.35;1.90;;;24.30;58.80;;;;;;4103650;28;20193;-46
2023/02/18 05:20:38;;;;;;;2.20;1.90;;;24.30;58.80;;;;;;4101842;28;20070;-46
2023/02/18 05:23:00;;;;;;;2.30;1.90;;;24.30;58.80;;;;;;4100375;28;20097;-44
2023/02/18 05:25:23;;;;;;;2.05;1.80;;;24.20;58.70;;;;;;4105344;28;20038;-44
2023/02/18 05:27:45;;;;;;;3.58;2.00;;;24.20;58.70;;;;;;4107106;28;20504;-44
2023/02/18 05:30:08;;;;;;;2.08;1.88;;;24.20;58.70;;;;;;4103981;28;20431;-46
2023/02/18 05:32:31;;;;;;;2.47;2.00;;;24.10;58.70;;;;;;4100833;28;20789;-53
2023/02/18 05:34:53;;;;;;;2.47;2.05;;;24.00;58.50;;;;;;4092193;28;20110;-50
2023/02/18 05:37:17;;;;;;;3.05;1.98;;;24.00;58.50;;;;;;4101889;28;20050;-46
2023/02/18 05:39:40;;;;;;;2.15;1.92;;;24.00;58.40;;;;;;4102333;28;20031;-46
2023/02/18 05:42:03;;;;;;;2.20;1.92;;;23.90;58.60;;;;;;4104250;28;20116;-44
2023/02/18 05:44:32;;;;;;;2.70;2.20;;;23.90;58.60;;;;;;4106971;28;20524;-44
2023/02/18 05:46:54;;;;;;;2.30;1.77;;;23.90;58.70;;;;;;4104007;28;20059;-48
2023/02/18 05:49:17;;;;;;;2.58;1.90;;;23.80;58.60;;;;;;4112044;28;20043;-51
2023/02/18 05:51:39;;;;;;;2.30;1.85;;;23.80;58.60;;;;;;4107931;28;20122;-46
2023/02/18 05:54:01;;;;;;;2.65;2.00;;;23.80;58.70;;;;;;4102029;28;20089;-43
2023/02/18 05:56:24;;;;;;;2.83;1.92;;;23.70;58.60;;;;;;4100577;28;20416;-42
2023/02/18 05:58:46;;;;;;;3.08;1.85;;;23.70;58.70;;;;;;4107983;28;20168;-48
2023/02/18 06:01:09;;;;;;;2.45;1.95;;;23.60;58.50;;;;;;4105565;28;20039;-50
2023/02/18 06:03:31;;;;;;;3.30;2.50;;;23.60;58.60;;;;;;4091948;28;20093;-47
2023/02/18 06:05:53;;;;;;;2.15;1.85;;;23.60;58.40;;;;;;4100955;28;20523;-50
2023/02/18 06:08:16;;;;;;;3.42;2.20;;;23.50;58.50;;;;;;4101391;28;20039;-46
2023/02/18 06:10:40;;;;;;;3.22;2.40;;;23.50;58.00;;;;;;4097283;28;20045;-45
2023/02/18 06:13:03;;;;;;;3.10;2.45;;;23.50;58.00;;;;;;4093428;28;20039;-45
2023/02/18 06:15:25;;;;;;;3.10;2.50;;;23.40;58.20;;;;;;4096031;28;20042;-49
2023/02/18 06:17:47;;;;;;;3.58;2.70;;;23.40;58.10;;;;;;4103381;28;20141;-46
2023/02/18 06:20:10;;;;;;;3.30;2.63;;;23.40;58.20;;;;;;4096770;28;20097;-48
2023/02/18 06:22:33;;;;;;;6.05;2.67;;;23.30;58.00;;;;;;4099601;28;20039;-46
2023/02/18 06:24:55;;;;;;;3.35;2.70;;;23.30;58.10;;;;;;4101006;28;20550;-48
2023/02/18 06:27:18;;;;;;;3.60;2.80;;;23.30;58.00;;;;;;4089833;28;20035;-45
2023/02/18 06:29:40;;;;;;;3.13;2.65;;;23.30;58.00;;;;;;4091040;28;20515;-44
2023/02/18 06:32:03;;;;;;;3.72;2.78;;;23.40;58.00;;;;;;4088418;28;20035;-51
2023/02/18 06:34:27;;;;;;;4.80;3.45;;;23.40;58.00;;;;;;4092368;28;20843;-52
2023/02/18 06:36:49;;;;;;;8.68;6.53;;;23.50;57.90;;;;;;4095174;28;20552;-48
2023/02/18 06:39:12;;;;;;;18.35;12.20;;;23.50;57.70;;;;;;4092911;28;20118;-51
2023/02/18 06:41:35;;;;;;;29.50;18.67;;;23.60;57.80;;;;;;4101965;28;20038;-46
2023/02/18 06:43:57;;;;;;;39.60;25.90;;;23.60;57.60;;;;;;4104931;28;20448;-51
2023/02/18 06:46:20;;;;;;;38.65;26.73;;;23.60;57.50;;;;;;4102228;28;20700;-49
2023/02/18 06:48:42;;;;;;;36.15;25.70;;;23.60;57.50;;;;;;4101505;28;20406;-47
2023/02/18 06:51:05;;;;;;;31.92;22.08;;;23.50;57.60;;;;;;4095472;28;20062;-48
2023/02/18 06:53:28;;;;;;;31.47;21.13;;;23.40;57.50;;;;;;4098993;28;20051;-49
2023/02/18 06:55:50;;;;;;;26.98;18.98;;;23.40;57.80;;;;;;4093255;28;20118;-50
2023/02/18 06:58:13;;;;;;;23.27;16.15;;;23.30;57.80;;;;;;4092596;28;20042;-49
2023/02/18 07:00:36;;;;;;;19.98;14.60;;;23.20;57.80;;;;;;4097047;28;20604;-50
2023/02/18 07:02:58;;;;;;;17.17;12.95;;;23.20;57.70;;;;;;4093932;28;20051;-46
2023/02/18 07:05:21;;;;;;;16.65;11.73;;;23.10;57.60;;;;;;4098255;28;20145;-51
2023/02/18 07:07:43;;;;;;;13.80;10.02;;;23.10;57.60;;;;;;4095709;28;20049;-45
2023/02/18 07:10:06;;;;;;;12.13;9.35;;;23.00;58.20;;;;;;4098689;28;20038;-50
2023/02/18 07:12:29;;;;;;;12.07;8.65;;;23.00;57.70;;;;;;4097504;28;20050;-45
2023/02/18 07:14:51;;;;;;;9.93;6.93;;;23.00;57.80;;;;;;4095301;28;20098;-44
2023/02/18 07:17:14;;;;;;;8.63;6.43;;;22.90;57.80;;;;;;4095271;28;20904;-46
2023/02/18 07:19:36;;;;;;;8.43;5.93;;;22.90;57.70;;;;;;4095311;28;20384;-43
2023/02/18 07:22:00;;;;;;;8.80;5.97;;;22.90;58.00;;;;;;4094251;28;20050;-45
2023/02/18 07:24:22;;;;;;;7.05;5.00;;;22.80;58.10;;;;;;4104161;28;20055;-49
2023/02/18 07:26:45;;;;;;;5.97;4.13;;;22.80;58.60;;;;;;4098264;28;20410;-46
2023/02/18 07:29:07;;;;;;;5.70;3.50;;;22.70;58.80;;;;;;4074991;28;20506;-47
2023/02/18 07:31:30;;;;;;;5.13;3.33;;;22.70;58.90;;;;;;4091183;28;20074;-44
2023/02/18 07:33:52;;;;;;;5.10;3.20;;;22.70;58.90;;;;;;4087870;28;20043;-43
2023/02/18 07:36:15;;;;;;;4.90;2.72;;;22.60;58.90;;;;;;4090885;28;20772;-46
2023/02/18 07:38:37;;;;;;;3.97;2.67;;;22.60;58.70;;;;;;4092526;28;20100;-45
2023/02/18 07:41:00;;;;;;;3.75;2.13;;;22.60;58.50;;;;;;4094877;28;20043;-45
2023/02/18 07:43:22;;;;;;;3.38;2.20;;;22.60;58.50;;;;;;4095649;28;20080;-44
2023/02/18 07:45:45;;;;;;;4.03;2.10;;;22.50;58.40;;;;;;4088543;28;20543;-46
2023/02/18 07:48:07;;;;;;;2.60;1.88;;;22.50;58.30;;;;;;4094034;28;20053;-43
2023/02/18 07:50:34;;;;;;;3.15;1.92;;;22.50;58.90;;;;;;4089756;28;20118;-44
2023/02/18 07:52:56;;;;;;;2.00;1.40;;;22.40;58.10;;;;;;4091441;28;20624;-44
2023/02/18 07:55:18;;;;;;;2.50;1.40;;;22.40;58.30;;;;;;4092947;28;20517;-45
2023/02/18 07:58:01;;;;;;;2.30;1.40;;;22.40;58.30;;;;;;4090893;28;20091;-46
2023/02/18 08:00:23;;;;;;;2.97;1.40;;;22.30;58.30;;;;;;4098021;28;20057;-44
2023/02/18 08:02:46;;;;;;;2.63;1.40;;;22.30;58.50;;;;;;4098189;28;20324;-46
2023/02/18 08:05:11;;;;;;;2.95;1.58;;;22.20;58.50;;;;;;4096602;28;20051;-44
2023/02/18 08:07:33;;;;;;;2.45;1.30;;;22.20;58.70;;;;;;4093630;28;20724;-46
2023/02/18 08:09:56;;;;;;;1.92;1.10;;;22.10;58.80;;;;;;4094056;28;20043;-46
2023/02/18 08:12:18;;;;;;;1.95;1.23;;;22.10;58.80;;;;;;4095957;28;20288;-44
2023/02/18 08:14:41;;;;;;;2.05;1.20;;;22.00;58.90;;;;;;4095778;28;20043;-44
2023/02/18 08:17:03;;;;;;;2.67;1.27;;;22.00;58.90;;;;;;4096450;28;20035;-44
2023/02/18 08:19:26;;;;;;;2.58;1.23;;;22.00;58.90;;;;;;4093246;28;20046;-44
2023/02/18 08:21:48;;;;;;;1.88;1.10;;;21.90;59.00;;;;;;4092650;28;20565;-44
2023/02/18 08:24:11;;;;;;;2.05;1.20;;;21.90;58.90;;;;;;4082161;28;20062;-48
2023/02/18 08:26:33;;;;;;;1.77;1.00;;;21.80;59.00;;;;;;4087000;28;20205;-46
2023/02/18 08:28:55;;;;;;;2.20;1.20;;;21.80;59.10;;;;;;4094309;28;20046;-43
2023/02/18 08:31:24;;;;;;;2.05;1.27;;;21.70;59.10;;;;;;4092143;28;20352;-43
2023/02/18 08:33:47;;;;;;;2.33;1.40;;;21.70;59.00;;;;;;4090384;28;20590;-48
2023/02/18 08:36:09;;;;;;;1.10;0.80;;;21.70;59.00;;;;;;4090815;28;20888;-43
2023/02/18 08:38:32;;;;;;;1.02;0.80;;;21.60;59.00;;;;;;4093090;28;20035;-43
2023/02/18 08:41:05;;;;;;;1.15;0.90;;;21.60;59.00;;;;;;4091738;28;20122;-43
2023/02/18 08:43:27;;;;;;;1.30;0.93;;;21.50;58.90;;;;;;4087890;28;20054;-45
2023/02/18 08:45:50;;;;;;;1.05;0.77;;;21.50;59.00;;;;;;4093179;28;20110;-43
2023/02/18 08:48:15;;;;;;;0.85;0.77;;;21.40;58.80;;;;;;4089503;28;20043;-45
2023/02/18 08:50:37;;;;;;;0.95;0.90;;;21.40;58.90;;;;;;4091094;28;20736;-44
2023/02/18 08:53:02;;;;;;;1.60;1.00;;;21.40;58.80;;;;;;4094982;28;20518;-48
2023/02/18 08:55:25;;;;;;;0.88;0.70;;;21.30;58.70;;;;;;4096899;28;20035;-45
2023/02/18 08:57:48;;;;;;;1.25;0.90;;;21.30;58.90;;;;;;4091233;28;20404;-51
2023/02/18 09:00:12;;;;;;;1.70;1.00;;;21.20;59.00;;;;;;4092138;28;20058;-47
2023/02/18 09:02:34;;;;;;;1.00;0.93;;;21.20;58.70;;;;;;4095918;28;20129;-43
2023/02/18 09:04:57;;;;;;;1.95;1.33;;;21.20;58.90;;;;;;4090914;28;20114;-45
2023/02/18 09:07:19;;;;;;;1.80;1.13;;;21.10;58.70;;;;;;4082946;28;20537;-44
2023/02/18 09:09:42;;;;;;;2.38;1.50;;;21.10;58.90;;;;;;4086700;28;20046;-43
2023/02/18 09:12:06;;;;;;;1.65;1.27;;;21.00;58.90;;;;;;4093051;28;20556;-43
2023/02/18 09:14:28;;;;;;;1.77;1.35;;;21.00;59.30;;;;;;4089303;28;20066;-47
2023/02/18 09:16:51;;;;;;;1.63;1.30;;;21.00;59.40;;;;;;4095672;28;20054;-45
2023/02/18 09:19:13;;;;;;;1.33;1.15;;;21.10;59.40;;;;;;4087581;28;20130;-43
2023/02/18 09:21:35;;;;;;;1.70;1.25;;;21.20;59.70;;;;;;4092459;28;20034;-43
2023/02/18 09:23:58;;;;;;;2.15;1.27;;;21.30;59.90;;;;;;4095072;28;20086;-43
2023/02/18 09:26:22;;;;;;;1.08;0.90;;;21.40;60.20;;;;;;4096290;28;20050;-46
2023/02/18 09:28:44;;;;;;;1.33;1.02;;;21.50;60.40;;;;;;4095521;28;20615;-47
2023/02/18 09:31:13;;;;;;;1.15;1.00;;;21.50;60.60;;;;;;4096959;28;20054;-42
2023/02/18 09:33:37;;;;;;;1.92;0.77;;;21.70;61.00;;;;;;4095791;28;20055;-44
2023/02/18 09:36:01;;;;;;;1.13;0.93;;;21.80;61.00;;;;;;4098173;28;20575;-44
2023/02/18 09:38:24;;;;;;;1.23;0.70;;;21.90;61.50;;;;;;4092814;28;20043;-43
2023/02/18 09:40:51;;;;;;;1.05;0.90;;;22.00;61.70;;;;;;4094890;28;20118;-49
2023/02/18 09:43:37;;;;;;;0.77;0.75;;;22.10;61.50;;;;;;4099888;28;20054;-43
2023/02/18 09:46:02;;;;;;;1.05;0.80;;;22.20;61.80;;;;;;4101776;28;20536;-47
2023/02/18 09:48:32;;;;;;;0.88;0.68;;;22.30;61.80;;;;;;4104712;28;20133;-45
2023/02/18 09:50:54;;;;;;;1.45;0.63;;;22.40;61.60;;;;;;4105821;28;20543;-49
2023/02/18 09:53:17;;;;;;;1.48;0.90;;;22.40;61.60;;;;;;4104807;28;20121;-44
2023/02/18 09:55:41;;;;;;;0.70;0.60;;;22.50;61.90;;;;;;4099428;28;20106;-45
2023/02/18 09:58:25;;;;;;;0.50;0.50;;;22.60;61.90;;;;;;4100709;28;20139;-43
2023/02/18 10:00:52;;;;;;;;;;;22.70;61.90;;;;;;4109066;28;20588;-44
2023/02/18 10:03:19;;;;;;;0.82;0.70;;;22.80;62.00;;;;;;4097137;28;20430;-42
2023/02/18 10:06:04;;;;;;;0.60;0.60;;;22.80;61.90;;;;;;4100664;28;20169;-43
2023/02/18 10:08:39;;;;;;;0.50;0.50;;;22.90;62.10;;;;;;4097669;28;20433;-43
2023/02/18 10:11:02;;;;;;;0.60;0.57;;;23.00;62.10;;;;;;4106737;28;20047;-43
2023/02/18 10:13:28;;;;;;;0.65;0.50;;;23.00;61.90;;;;;;4097593;28;20045;-43
2023/02/18 10:15:51;;;;;;;0.57;0.50;;;23.10;62.10;;;;;;4088644;28;20163;-43
2023/02/18 10:18:41;;;;;;;0.68;0.60;;;23.20;62.30;;;;;;4102293;28;20125;-45
2023/02/18 10:21:20;;;;;;;0.77;0.50;;;23.20;62.20;;;;;;4098023;28;20587;-50
2023/02/18 10:24:06;;;;;;;0.45;0.40;;;23.30;62.30;;;;;;4100722;28;20050;-45
2023/02/18 10:26:32;;;;;;;0.80;0.43;;;23.30;62.30;;;;;;4088205;28;20395;-43
2023/02/18 10:28:56;;;;;;;1.63;0.75;;;23.40;62.30;;;;;;4095707;28;20497;-43
2023/02/18 10:31:39;;;;;;;0.75;0.55;;;23.40;62.20;;;;;;4101007;28;20039;-42
2023/02/18 10:34:18;;;;;;;1.00;0.70;;;23.50;62.30;;;;;;4104541;28;20049;-46
2023/02/18 10:36:51;;;;;;;0.73;0.63;;;23.50;62.20;;;;;;4100695;28;20045;-43
2023/02/18 10:39:35;;;;;;;0.65;0.50;;;23.60;62.40;;;;;;4096327;28;20035;-43
2023/02/18 10:42:19;;;;;;;0.68;0.55;;;23.60;62.20;;;;;;4102924;28;20043;-44
2023/02/18 10:45:16;;;;;;;1.00;0.60;;;23.70;62.10;;;;;;4088171;28;20050;-43
2023/02/18 10:47:46;;;;;;;0.70;0.60;;;23.80;62.20;;;;;;4102375;28;20030;-48
2023/02/18 10:50:12;;;;;;;0.75;0.60;;;23.80;62.20;;;;;;4101098;28;20035;-44
2023/02/18 10:52:45;;;;;;;0.90;0.60;;;23.80;62.10;;;;;;4107726;28;20043;-44
2023/02/18 10:55:11;;;;;;;0.55;0.55;;;23.90;62.20;;;;;;4098843;28;20474;-45
2023/02/18 10:57:33;;;;;;;1.08;0.68;;;23.90;62.00;;;;;;4102092;28;20047;-44
2023/02/18 11:00:11;;;;;;;0.90;0.70;;;24.00;62.10;;;;;;4107358;28;20551;-45
2023/02/18 11:02:33;;;;;;;0.98;0.60;;;24.00;62.10;;;;;;4100822;28;20125;-42
2023/02/18 11:04:59;;;;;;;1.02;0.68;;;24.00;62.20;;;;;;4103251;28;20057;-42
2023/02/18 11:07:26;;;;;;;0.52;0.52;;;24.10;62.20;;;;;;4105442;28;20141;-42
2023/02/18 11:09:54;;;;;;;1.38;0.73;;;24.10;62.60;;;;;;4103157;28;20448;-42
2023/02/18 11:12:25;;;;;;;0.75;0.70;;;24.10;62.50;;;;;;4105256;28;20102;-42
2023/02/18 11:14:50;;;;;;;1.02;0.68;;;24.20;62.70;;;;;;4100246;28;20122;-42
2023/02/18 11:17:20;;;;;;;0.68;0.50;;;24.20;62.80;;;;;;4098914;28;20583;-42
2023/02/18 11:19:50;;;;;;;1.27;1.00;;;24.20;62.70;;;;;;4101058;28;20189;-45
2023/02/18 11:22:20;;;;;;;1.05;0.68;;;24.20;62.70;;;;;;4102732;28;20038;-42
2023/02/18 11:24:47;;;;;;;1.52;0.85;;;24.30;62.80;;;;;;4103673;28;20164;-42
2023/02/18 11:27:23;;;;;;;0.75;0.55;;;24.30;62.80;;;;;;4098264;28;20491;-42
2023/02/18 11:29:47;;;;;;;0.50;0.43;;;24.30;62.90;;;;;;4103452;28;20035;-44
2023/02/18 11:32:12;;;;;;;1.88;0.90;;;24.40;62.90;;;;;;4103770;28;20039;-43
2023/02/18 11:34:35;;;;;;;0.90;0.70;;;24.40;63.00;;;;;;4100943;28;20090;-44
2023/02/18 11:37:16;;;;;;;1.00;0.73;;;24.40;62.90;;;;;;4102473;28;20030;-42
2023/02/18 11:39:44;;;;;;;1.02;0.65;;;24.40;62.90;;;;;;4101873;28;20042;-43
2023/02/18 11:42:07;;;;;;;1.30;0.65;;;24.50;62.90;;;;;;4103940;28;20057;-41
2023/02/18 11:44:42;;;;;;;1.35;0.75;;;24.50;62.90;;;;;;4101842;28;20105;-42
2023/02/18 11:47:13;;;;;;;0.82;0.60;;;24.50;62.80;;;;;;4102665;28;20432;-44
2023/02/18 11:49:36;;;;;;;1.88;0.70;;;24.50;62.90;;;;;;4102862;28;20523;-45
2023/02/18 11:52:41;;;;;;;1.10;0.60;;;24.50;62.90;;;;;;4094382;28;20034;-43
2023/02/18 11:55:17;;;;;;;0.73;0.40;;;24.60;63.00;;;;;;4100028;28;20046;-45
2023/02/18 11:58:02;;;;;;;0.50;0.50;;;24.60;63.10;;;;;;4104432;28;20057;-48
2023/02/18 12:00:39;;;;;;;1.13;0.68;;;24.60;63.00;;;;;;4102717;28;20047;-44
2023/02/18 12:03:06;;;;;;;1.73;0.75;;;24.60;63.00;;;;;;4103242;28;20492;-46
2023/02/18 12:05:31;;;;;;;2.05;0.65;;;24.60;63.50;;;;;;4097640;28;20042;-46
2023/02/18 12:08:24;;;;;;;0.90;0.60;;;24.70;63.60;;;;;;4102068;28;20054;-44
2023/02/18 12:11:24;;;;;;;0.77;0.63;;;24.80;63.60;;;;;;4101995;28;20469;-42
2023/02/18 12:13:54;;;;;;;0.77;0.57;;;24.90;63.60;;;;;;4096851;28;20054;-45
2023/02/18 12:16:23;;;;;;;0.90;0.60;;;25.00;63.60;;;;;;4095322;28;20370;-42
2023/02/18 12:19:03;;;;;;;0.75;0.60;;;25.10;63.50;;;;;;4099453;28;20122;-45
2023/02/18 12:21:43;;;;;;;1.20;0.75;;;25.10;63.50;;;;;;4102776;28;20039;-47
2023/02/18 12:24:42;;;;;;;3.80;0.95;;;25.20;63.40;;;;;;4101149;28;20054;-46
2023/02/18 12:27:15;;;;;;;2.67;1.00;;;25.20;63.50;;;;;;4097915;28;20065;-45
2023/02/18 12:30:21;;;;;;;7.32;1.02;;;25.20;63.70;;;;;;4101383;28;20074;-44
2023/02/18 12:33:19;;;;;;;3.53;0.90;;;25.30;63.90;;;;;;4032099;29;20037;-41
2023/02/18 12:36:14;;;;;;;3.08;1.08;;;25.30;64.00;;;;;;4030102;29;20077;-41
2023/02/18 12:39:03;;;;;;;3.78;0.70;;;25.30;64.20;;;;;;4100786;28;20129;-43
2023/02/18 12:41:46;;;;;;;5.93;0.90;;;25.40;64.10;;;;;;4099363;28;20039;-43
2023/02/18 12:44:21;;;;;;;4.47;1.23;;;25.40;64.20;;;;;;4100221;28;20146;-47
2023/02/18 12:47:01;;;;;;;3.05;1.10;;;25.40;64.20;;;;;;4101666;28;20042;-46